createdAt,value
2024-01-05T00:00:09.704Z,7.55
2024-01-05T00:03:12.801Z,7.52
2024-01-05T00:06:15.761Z,7.57
2024-01-05T00:09:19.180Z,7.60
2024-01-05T00:12:22.483Z,7.64
2024-01-05T00:15:26.955Z,7.66
2024-01-05T00:18:29.872Z,7.67
2024-01-05T00:21:32.733Z,7.63
2024-01-05T00:24:38.233Z,7.68
2024-01-05T00:27:41.107Z,7.66
2024-01-05T00:30:45.617Z,7.69
2024-01-05T00:33:48.867Z,7.75
2024-01-05T00:36:51.923Z,7.68
2024-01-05T00:39:54.997Z,7.61
2024-01-05T00:42:57.857Z,7.66
2024-01-05T00:46:02.083Z,7.72
2024-01-05T00:49:04.837Z,7.67
2024-01-05T00:52:07.882Z,7.66
2024-01-05T00:55:10.881Z,7.66
2024-01-05T00:58:13.520Z,7.63
2024-01-05T01:01:17.751Z,7.50
2024-01-05T01:04:20.650Z,7.37
2024-01-05T01:07:23.462Z,7.30
2024-01-05T01:10:26.074Z,7.21
2024-01-05T01:13:28.880Z,7.17
2024-01-05T01:16:33.689Z,7.21
2024-01-05T01:19:36.430Z,7.18
2024-01-05T01:22:39.136Z,7.21
2024-01-05T01:25:42.085Z,7.27
2024-01-05T01:28:44.746Z,7.16
2024-01-05T01:31:48.780Z,7.26
2024-01-05T01:34:51.478Z,7.24
2024-01-05T01:37:54.169Z,7.17
2024-01-05T01:40:57.963Z,7.20
2024-01-05T01:44:01.588Z,7.11
2024-01-05T01:47:06.410Z,7.13
2024-01-05T01:50:10.035Z,7.19
2024-01-05T01:53:14.733Z,7.23
2024-01-05T01:56:17.598Z,7.33
2024-01-05T01:59:20.354Z,7.38
2024-01-05T02:02:25.162Z,7.47
2024-01-05T02:05:28.015Z,7.40
2024-01-05T02:08:30.877Z,7.42
2024-01-05T02:11:33.556Z,7.57
2024-01-05T02:14:36.370Z,7.54
2024-01-05T02:17:41.813Z,7.70
2024-01-05T02:20:47.872Z,7.65
2024-01-05T02:23:52.405Z,7.67
2024-01-05T02:26:55.287Z,7.65
2024-01-05T02:29:58.234Z,7.70
2024-01-05T02:33:01.332Z,7.81
2024-01-05T02:36:07.750Z,7.67
2024-01-05T02:39:21.592Z,7.64
2024-01-05T02:42:32.223Z,7.55
2024-01-05T02:45:45.221Z,7.65
2024-01-05T02:49:04.931Z,7.71
2024-01-05T02:52:21.342Z,7.72
2024-01-05T02:55:38.208Z,7.76
2024-01-05T02:58:43.278Z,7.80
2024-01-05T03:02:15.003Z,7.72
2024-01-05T03:05:26.976Z,7.71
2024-01-05T03:08:35.325Z,7.75
2024-01-05T03:11:44.909Z,7.81
2024-01-05T03:14:53.148Z,7.63
2024-01-05T03:18:01.898Z,7.67
2024-01-05T03:21:09.081Z,7.75
2024-01-05T03:24:16.226Z,7.81
2024-01-05T03:27:25.655Z,7.93
2024-01-05T03:30:34.923Z,8.01
2024-01-05T03:33:44.487Z,8.01
2024-01-05T03:37:07.175Z,7.99
2024-01-05T03:40:25.371Z,8.07
2024-01-05T03:43:38.101Z,8.16
2024-01-05T03:46:51.494Z,8.23
2024-01-05T03:50:20.583Z,8.33
2024-01-05T03:53:35.276Z,8.42
2024-01-05T03:57:00.381Z,8.47
2024-01-05T04:00:38.252Z,8.64
2024-01-05T04:03:52.905Z,8.73
2024-01-05T04:07:19.316Z,8.70
2024-01-05T04:10:25.427Z,8.74
2024-01-05T04:13:36.150Z,8.71
2024-01-05T04:16:55.701Z,8.71
2024-01-05T04:20:08.859Z,8.69
2024-01-05T04:23:37.763Z,8.77
2024-01-05T04:26:45.884Z,8.75
2024-01-05T04:33:16.439Z,8.80
2024-01-05T04:36:28.651Z,8.76
2024-01-05T04:39:49.706Z,8.83
2024-01-05T04:43:05.473Z,8.79
2024-01-05T04:46:17.096Z,8.79
2024-01-05T04:49:30.522Z,8.70
2024-01-05T04:56:58.437Z,8.66
2024-01-05T05:00:31.028Z,8.61
2024-01-05T05:03:36.704Z,8.68
2024-01-05T05:07:32.054Z,8.60
2024-01-05T05:11:23.034Z,8.52
2024-01-05T05:18:30.210Z,8.55
2024-01-05T05:21:37.622Z,8.53
2024-01-05T05:24:58.284Z,8.55
2024-01-05T05:28:19.780Z,8.57
2024-01-05T05:31:37.368Z,8.61
2024-01-05T05:34:51.101Z,8.55
2024-01-05T05:38:16.730Z,8.44
2024-01-05T05:41:34.835Z,8.44
2024-01-05T05:44:50.438Z,8.47
2024-01-05T05:48:02.328Z,8.46
2024-01-05T05:51:25.095Z,8.41
2024-01-05T05:54:34.534Z,8.37
2024-01-05T06:01:23.680Z,8.51
2024-01-05T06:04:35.852Z,8.53
2024-01-05T06:07:51.933Z,8.61
2024-01-05T06:11:24.231Z,8.67
2024-01-05T06:14:42.296Z,8.63
2024-01-05T06:18:06.504Z,8.74
2024-01-05T06:21:19.404Z,8.96
2024-01-05T06:24:31.023Z,8.99
2024-01-05T06:27:39.748Z,8.98
2024-01-05T06:30:48.217Z,9.05
2024-01-05T06:37:22.951Z,9.09
2024-01-05T06:40:35.761Z,9.08
2024-01-05T06:43:45.874Z,8.99
2024-01-05T06:47:03.614Z,8.99
2024-01-05T06:50:15.905Z,8.84
2024-01-05T06:53:20.594Z,8.81
2024-01-05T06:56:41.096Z,8.78
2024-01-05T07:00:06.988Z,8.75
2024-01-05T07:03:28.863Z,8.57
2024-01-05T07:06:40.112Z,8.54
2024-01-05T07:09:58.126Z,8.53
2024-01-05T07:13:08.625Z,8.47
2024-01-05T07:16:21.974Z,8.46
2024-01-05T07:19:29.014Z,8.43
2024-01-05T07:22:36.911Z,8.42
2024-01-05T07:25:45.901Z,8.43
2024-01-05T07:29:10.102Z,8.43
2024-01-05T07:32:44.946Z,8.51
2024-01-05T07:36:11.070Z,8.55
2024-01-05T08:01:28.946Z,8.32
2024-01-05T08:22:17.551Z,8.60
2024-01-05T08:25:24.154Z,8.68
2024-01-05T08:28:27.989Z,8.73
2024-01-05T08:31:31.615Z,8.76
2024-01-05T08:34:35.205Z,8.80
2024-01-05T08:37:39.478Z,8.85
2024-01-05T08:40:45.823Z,8.89
2024-01-05T08:43:48.762Z,8.96
2024-01-05T08:46:51.759Z,9.02
2024-01-05T08:49:55.282Z,9.10
2024-01-05T08:52:58.383Z,9.13
2024-01-05T08:56:02.663Z,9.16
2024-01-05T08:59:06.928Z,9.19
2024-01-05T09:02:10.378Z,9.21
2024-01-05T09:05:14.024Z,9.18
2024-01-05T09:08:17.005Z,9.15
2024-01-05T09:11:21.507Z,9.13
2024-01-05T09:14:24.661Z,9.13
2024-01-05T09:17:27.859Z,9.14
2024-01-05T09:20:30.978Z,9.17
2024-01-05T09:23:34.013Z,9.18
2024-01-05T09:26:38.260Z,9.15
2024-01-05T09:29:41.556Z,9.17
2024-01-05T09:32:44.348Z,9.29
2024-01-05T09:35:47.200Z,9.32
2024-01-05T09:38:50.219Z,9.38
2024-01-05T09:41:54.367Z,9.46
2024-01-05T09:44:57.748Z,9.60
2024-01-05T09:48:03.547Z,9.60
2024-01-05T09:51:08.878Z,9.64
2024-01-05T09:54:12.337Z,9.65
2024-01-05T09:57:19.094Z,9.78
2024-01-05T10:00:24.562Z,9.78
2024-01-05T10:03:28.491Z,9.80
2024-01-05T10:06:32.545Z,9.83
2024-01-05T10:09:50.912Z,9.77
2024-01-05T10:12:55.233Z,9.81
2024-01-05T10:16:01.023Z,9.82
2024-01-05T10:19:12.942Z,9.87
2024-01-05T10:22:16.891Z,9.87
2024-01-05T10:25:23.225Z,9.93
2024-01-05T10:28:31.739Z,9.94
2024-01-05T10:31:34.659Z,9.99
2024-01-05T10:34:37.816Z,9.99
2024-01-05T10:37:40.646Z,10.02
2024-01-05T10:40:43.375Z,10.07
2024-01-05T10:43:48.997Z,10.08
2024-01-05T10:46:53.277Z,10.16
2024-01-05T10:49:58.705Z,10.17
2024-01-05T10:53:02.755Z,10.16
2024-01-05T10:56:09.000Z,10.22
2024-01-05T10:59:13.106Z,10.20
2024-01-05T11:02:23.313Z,10.26
2024-01-05T11:05:27.882Z,10.32
2024-01-05T11:08:44.092Z,10.38
2024-01-05T11:12:01.710Z,10.40
2024-01-05T11:15:24.663Z,10.48
2024-01-05T11:18:57.095Z,10.48
2024-01-05T11:22:04.728Z,10.53
2024-01-05T11:25:08.088Z,10.50
2024-01-05T11:28:34.160Z,10.52
2024-01-05T11:31:55.078Z,10.53
2024-01-05T11:34:58.074Z,10.52
2024-01-05T11:38:00.884Z,10.53
2024-01-05T11:41:17.466Z,10.59
2024-01-05T11:44:33.781Z,10.62
2024-01-05T11:47:42.906Z,10.71
2024-01-05T11:50:45.895Z,10.71
2024-01-05T11:53:49.652Z,10.68
2024-01-05T11:56:56.148Z,10.66
2024-01-05T11:59:58.937Z,10.69
2024-01-05T12:03:04.085Z,10.69
2024-01-05T12:06:11.005Z,10.67
2024-01-05T12:09:14.241Z,10.78
2024-01-05T12:12:18.348Z,10.82
2024-01-05T12:15:21.749Z,10.78
2024-01-05T12:18:34.590Z,10.85
2024-01-05T12:21:41.230Z,10.78
2024-01-05T12:24:46.921Z,10.73
2024-01-05T12:27:50.114Z,10.74
2024-01-05T12:30:53.289Z,10.74
2024-01-05T12:33:58.560Z,10.73
2024-01-05T12:37:08.596Z,10.73
2024-01-05T12:40:12.774Z,10.72
2024-01-05T12:43:17.561Z,10.75
2024-01-05T12:46:21.411Z,10.69
2024-01-05T12:49:27.114Z,10.68
2024-01-05T12:52:37.415Z,10.71
2024-01-05T12:55:40.298Z,10.69
2024-01-05T12:58:44.174Z,10.70
2024-01-05T13:01:46.929Z,10.75
2024-01-05T13:04:51.095Z,10.86
2024-01-05T13:07:54.656Z,10.86
2024-01-05T13:10:57.392Z,10.94
2024-01-05T13:14:00.204Z,10.99
2024-01-05T13:17:03.344Z,10.95
2024-01-05T13:20:10.104Z,10.96
2024-01-05T13:23:13.686Z,10.93
2024-01-05T13:26:17.482Z,10.89
2024-01-05T13:29:20.206Z,10.91
2024-01-05T13:32:23.152Z,10.89
2024-01-05T13:35:27.330Z,10.86
2024-01-05T13:38:30.057Z,10.90
2024-01-05T13:41:32.780Z,10.95
2024-01-05T13:44:36.380Z,10.98
2024-01-05T13:47:39.394Z,10.94
2024-01-05T13:50:43.619Z,10.89
2024-01-05T13:53:46.437Z,10.89
2024-01-05T13:56:49.310Z,10.84
2024-01-05T13:59:52.086Z,10.84
2024-01-05T14:02:54.950Z,10.87
2024-01-05T14:06:04.999Z,10.83
2024-01-05T14:09:07.926Z,10.75
2024-01-05T14:12:11.079Z,10.71
2024-01-05T14:15:15.456Z,10.66
2024-01-05T14:18:18.426Z,10.53
2024-01-05T14:21:27.542Z,10.45
2024-01-05T14:24:30.508Z,10.50
2024-01-05T14:27:33.270Z,10.51
2024-01-05T14:30:36.288Z,10.45
2024-01-05T14:33:39.450Z,10.47
2024-01-05T14:36:43.832Z,10.44
2024-01-05T14:39:46.690Z,10.42
2024-01-05T14:42:49.490Z,10.42
2024-01-05T14:45:52.345Z,10.34
2024-01-05T14:48:55.245Z,10.41
2024-01-05T14:52:01.248Z,10.42
2024-01-05T14:55:04.657Z,10.45
2024-01-05T14:58:08.091Z,10.40
2024-01-05T15:01:11.239Z,10.38
2024-01-05T15:04:14.460Z,10.24
2024-01-05T15:07:19.037Z,10.17
2024-01-05T15:10:21.827Z,10.23
2024-01-05T15:13:24.597Z,10.28
2024-01-05T15:16:28.058Z,10.31
2024-01-05T15:19:31.077Z,10.29
2024-01-05T15:22:35.250Z,10.27
2024-01-05T15:25:38.082Z,10.08
2024-01-05T15:28:41.717Z,9.98
2024-01-05T15:31:44.586Z,10.08
2024-01-05T15:34:47.568Z,10.06
2024-01-05T15:37:51.667Z,10.03
2024-01-05T15:40:54.397Z,10.02
2024-01-05T15:43:57.661Z,9.91
2024-01-05T15:47:00.714Z,9.82
2024-01-05T15:50:04.349Z,9.80
2024-01-05T15:53:08.526Z,9.75
2024-01-05T15:56:11.645Z,9.78
2024-01-05T15:59:14.723Z,9.78
2024-01-05T16:02:17.526Z,9.75
2024-01-05T16:05:20.688Z,9.64
2024-01-05T16:08:25.311Z,9.62
2024-01-05T16:11:31.742Z,9.58
2024-01-05T16:14:34.764Z,9.53
2024-01-05T16:17:37.806Z,9.45
2024-01-05T16:20:42.391Z,9.29
2024-01-05T16:23:46.717Z,9.27
2024-01-05T16:26:50.419Z,9.25
2024-01-05T16:29:53.244Z,9.10
2024-01-05T16:32:56.179Z,9.16
2024-01-05T16:35:59.104Z,9.02
2024-01-05T16:39:04.053Z,8.92
2024-01-05T16:42:07.112Z,8.87
2024-01-05T16:45:13.055Z,8.76
2024-01-05T16:48:16.154Z,8.71
2024-01-05T16:51:19.027Z,8.74
2024-01-05T16:54:23.346Z,8.65
2024-01-05T16:57:26.290Z,8.61
2024-01-05T17:00:29.618Z,8.48
2024-01-05T17:03:32.984Z,8.46
2024-01-05T17:06:37.111Z,8.31
2024-01-05T17:09:42.304Z,8.30
2024-01-05T17:12:45.310Z,8.30
2024-01-05T17:15:48.169Z,8.23
2024-01-05T17:18:53.085Z,8.29
2024-01-05T17:21:56.205Z,8.36
2024-01-05T17:25:00.795Z,8.39
2024-01-05T17:28:05.060Z,8.34
2024-01-05T17:31:08.098Z,8.29
2024-01-05T17:34:11.945Z,8.32
2024-01-05T17:37:17.365Z,8.17
2024-01-05T17:40:22.938Z,8.17
2024-01-05T17:43:25.747Z,8.09
2024-01-05T17:46:28.744Z,8.03
2024-01-05T17:49:31.699Z,8.09
2024-01-05T17:52:34.644Z,8.09
2024-01-05T17:55:38.805Z,8.14
2024-01-05T17:58:41.692Z,8.14
2024-01-05T18:01:45.129Z,8.13
2024-01-05T18:04:48.061Z,8.03
2024-01-05T18:07:54.194Z,7.99
2024-01-05T18:10:58.705Z,7.89
2024-01-05T18:14:01.917Z,7.88
2024-01-05T18:17:05.168Z,7.78
2024-01-05T18:20:10.128Z,7.66
2024-01-05T18:23:16.748Z,7.65
2024-01-05T18:26:23.122Z,7.69
2024-01-05T18:29:29.407Z,7.77
2024-01-05T18:32:33.113Z,7.77
2024-01-05T18:35:35.982Z,7.68
2024-01-05T18:38:39.160Z,7.52
2024-01-05T18:41:43.353Z,7.42
2024-01-05T18:44:46.267Z,7.43
2024-01-05T18:47:49.188Z,7.51
2024-01-05T18:50:52.342Z,7.46
2024-01-05T18:53:55.177Z,7.37
2024-01-05T18:57:00.805Z,7.43
2024-01-05T19:00:03.684Z,7.44
2024-01-05T19:03:06.857Z,7.55
2024-01-05T19:06:09.816Z,7.44
2024-01-05T19:09:12.920Z,7.37
2024-01-05T19:12:17.308Z,7.42
2024-01-05T19:15:20.125Z,7.40
2024-01-05T19:18:23.145Z,7.34
2024-01-05T19:21:26.132Z,7.29
2024-01-05T19:24:29.361Z,7.31
2024-01-05T19:27:33.807Z,7.37
2024-01-05T19:30:37.131Z,7.37
2024-01-05T19:33:40.217Z,7.29
2024-01-05T19:36:46.317Z,7.10
2024-01-05T19:39:49.701Z,6.91
2024-01-05T19:42:54.159Z,6.94
2024-01-05T19:45:57.095Z,6.98
2024-01-05T19:49:00.999Z,7.07
2024-01-05T19:52:04.817Z,7.18
2024-01-05T19:55:08.684Z,7.16
2024-01-05T19:58:13.509Z,7.19
2024-01-05T20:01:17.803Z,7.08
2024-01-05T20:04:20.810Z,7.13
2024-01-05T20:07:25.676Z,7.15
2024-01-05T20:10:29.708Z,7.14
2024-01-05T20:13:33.934Z,7.10
2024-01-05T20:16:36.934Z,7.06
2024-01-05T20:19:40.011Z,7.07
2024-01-05T20:22:42.999Z,6.91
2024-01-05T20:25:45.737Z,6.84
2024-01-05T20:28:51.027Z,6.73
2024-01-05T20:31:55.355Z,6.82
2024-01-05T20:34:58.640Z,6.91
2024-01-05T20:38:01.423Z,6.96
2024-01-05T20:41:05.031Z,6.93
2024-01-05T20:44:12.746Z,6.87
2024-01-05T20:47:17.543Z,6.80
2024-01-05T20:50:20.159Z,6.85
2024-01-05T20:53:23.173Z,6.97
2024-01-05T20:56:25.796Z,6.91
2024-01-05T20:59:29.799Z,6.95
2024-01-05T21:02:32.583Z,6.93
2024-01-05T21:05:36.129Z,6.81
2024-01-05T21:08:38.810Z,6.77
2024-01-05T21:11:41.415Z,6.79
2024-01-05T21:14:45.388Z,6.71
2024-01-05T21:17:49.520Z,6.76
2024-01-05T21:20:52.201Z,6.71
2024-01-05T21:23:54.952Z,6.68
2024-01-05T21:26:57.613Z,6.61
2024-01-05T21:30:01.644Z,6.67
2024-01-05T21:33:05.523Z,6.65
2024-01-05T21:36:12.197Z,6.70
2024-01-05T21:39:17.637Z,6.61
2024-01-05T21:42:20.698Z,6.51
2024-01-05T21:45:24.905Z,6.62
2024-01-05T21:48:27.776Z,6.57
2024-01-05T21:51:30.641Z,6.62
2024-01-05T21:54:33.484Z,6.68
2024-01-05T21:57:36.507Z,6.69
2024-01-05T22:00:40.674Z,6.70
2024-01-05T22:03:43.494Z,6.63
2024-01-05T22:06:46.498Z,6.67
2024-01-05T22:09:49.386Z,6.60
2024-01-05T22:12:54.573Z,6.69
2024-01-05T22:15:58.914Z,6.53
2024-01-05T22:19:01.968Z,6.67
2024-01-05T22:22:04.891Z,6.67
2024-01-05T22:25:08.596Z,6.69
2024-01-05T22:28:11.278Z,6.70
2024-01-05T22:31:15.612Z,6.61
2024-01-05T22:34:18.365Z,6.60
2024-01-05T22:37:21.551Z,6.49
2024-01-05T22:40:26.621Z,6.53
2024-01-05T22:43:29.337Z,6.61
2024-01-05T22:46:33.296Z,6.65
2024-01-05T22:49:40.104Z,6.62
2024-01-05T22:52:42.807Z,6.57
2024-01-05T22:55:45.497Z,6.55
2024-01-05T22:58:48.378Z,6.45
2024-01-05T23:01:55.824Z,6.49
2024-01-05T23:04:58.993Z,6.44
2024-01-05T23:08:01.807Z,6.41
2024-01-05T23:11:06.211Z,6.33
2024-01-05T23:14:08.887Z,6.39
2024-01-05T23:17:12.931Z,6.42
2024-01-05T23:20:16.333Z,6.37
2024-01-05T23:23:19.139Z,6.40
2024-01-05T23:26:21.782Z,6.38
2024-01-05T23:29:24.981Z,6.41
2024-01-05T23:32:28.995Z,6.36
2024-01-05T23:35:31.703Z,6.45
2024-01-05T23:38:34.374Z,6.49
2024-01-05T23:41:37.846Z,6.51
2024-01-05T23:44:40.541Z,6.50
2024-01-05T23:47:44.533Z,6.50
2024-01-05T23:50:47.336Z,6.51
2024-01-05T23:53:49.943Z,6.45
2024-01-05T23:56:52.552Z,6.43
2024-01-05T23:59:55.250Z,6.55
